createdAt,value
2023-03-24T00:01:31.181Z,10.70
2023-03-24T00:04:00.999Z,10.73
2023-03-24T00:06:34.824Z,10.76
2023-03-24T00:09:04.909Z,10.73
2023-03-24T00:11:35.665Z,10.70
2023-03-24T00:14:04.925Z,10.64
2023-03-24T00:16:34.910Z,10.64
2023-03-24T00:19:03.732Z,10.69
2023-03-24T00:21:32.648Z,10.71
2023-03-24T00:24:02.031Z,10.70
2023-03-24T00:26:30.860Z,10.68
2023-03-24T00:29:02.102Z,10.67
2023-03-24T00:31:30.884Z,10.68
2023-03-24T00:33:59.774Z,10.69
2023-03-24T00:36:29.876Z,10.64
2023-03-24T00:38:59.138Z,10.64
2023-03-24T00:41:28.979Z,10.63
2023-03-24T00:44:03.441Z,10.63
2023-03-24T00:46:33.691Z,10.65
2023-03-24T00:49:05.965Z,10.69
2023-03-24T00:51:38.533Z,10.66
2023-03-24T00:54:09.333Z,10.68
2023-03-24T00:56:41.093Z,10.69
2023-03-24T00:59:14.002Z,10.71
2023-03-24T01:01:43.434Z,10.72
2023-03-24T01:04:12.414Z,10.71
2023-03-24T01:06:42.159Z,10.76
2023-03-24T01:09:12.351Z,10.80
2023-03-24T01:11:42.448Z,10.83
2023-03-24T01:14:13.791Z,10.83
2023-03-24T01:16:43.414Z,10.86
2023-03-24T01:19:12.665Z,10.82
2023-03-24T01:21:42.399Z,10.84
2023-03-24T01:24:13.650Z,10.85
2023-03-24T01:26:42.821Z,10.87
2023-03-24T01:29:13.152Z,10.92
2023-03-24T01:31:42.003Z,10.97
2023-03-24T01:34:11.014Z,11.05
2023-03-24T01:36:39.803Z,11.12
2023-03-24T01:39:08.876Z,11.16
2023-03-24T01:41:41.185Z,11.18
2023-03-24T01:44:34.064Z,11.25
2023-03-24T01:47:07.049Z,11.29
2023-03-24T01:49:44.146Z,11.34
2023-03-24T01:52:17.340Z,11.41
2023-03-24T01:54:51.915Z,11.48
2023-03-24T01:57:26.071Z,11.57
2023-03-24T02:00:00.295Z,11.64
2023-03-24T02:02:58.750Z,11.72
2023-03-24T02:05:34.426Z,11.76
2023-03-24T02:08:09.322Z,11.81
2023-03-24T02:10:39.847Z,11.52
2023-03-24T02:13:10.376Z,11.91
2023-03-24T02:15:50.802Z,11.95
2023-03-24T02:18:27.734Z,11.97
2023-03-24T02:21:32.165Z,11.97
2023-03-24T02:24:49.163Z,11.97
2023-03-24T02:27:36.689Z,12.00
2023-03-24T02:30:40.414Z,12.01
2023-03-24T02:33:43.562Z,12.03
2023-03-24T02:36:36.839Z,12.06
2023-03-24T02:39:39.372Z,12.06
2023-03-24T02:42:22.125Z,12.09
2023-03-24T02:45:08.217Z,12.13
2023-03-24T02:47:47.346Z,12.19
2023-03-24T02:50:24.731Z,12.22
2023-03-24T02:53:06.275Z,12.24
2023-03-24T02:55:45.253Z,12.25
2023-03-24T02:58:23.675Z,12.16
2023-03-24T03:01:04.364Z,12.31
2023-03-24T03:03:58.588Z,12.09
2023-03-24T03:06:31.235Z,12.26
2023-03-24T03:09:04.119Z,12.27
2023-03-24T03:11:33.321Z,12.31
2023-03-24T03:14:09.316Z,12.33
2023-03-24T03:16:45.536Z,12.36
2023-03-24T03:19:19.600Z,12.39
2023-03-24T03:21:50.590Z,12.43
2023-03-24T03:24:26.697Z,12.45
2023-03-24T03:26:59.910Z,12.46
2023-03-24T03:29:34.986Z,12.46
2023-03-24T03:32:07.847Z,12.48
2023-03-24T03:34:42.204Z,12.53
2023-03-24T03:37:18.204Z,12.56
2023-03-24T03:39:51.003Z,12.70
2023-03-24T03:42:20.467Z,12.77
2023-03-24T03:44:50.815Z,12.82
2023-03-24T03:47:21.328Z,12.87
2023-03-24T03:49:51.716Z,12.89
2023-03-24T03:52:22.106Z,12.92
2023-03-24T03:54:54.186Z,12.91
2023-03-24T03:57:22.940Z,12.88
2023-03-24T04:00:19.996Z,12.82
2023-03-24T04:03:46.968Z,12.76
2023-03-24T04:06:36.132Z,12.71
2023-03-24T04:09:24.314Z,12.68
2023-03-24T04:12:06.665Z,12.65
2023-03-24T04:14:59.617Z,12.58
2023-03-24T04:17:52.842Z,12.54
2023-03-24T04:20:49.941Z,12.51
2023-03-24T04:23:30.326Z,12.46
2023-03-24T04:26:10.561Z,12.44
2023-03-24T04:28:49.552Z,12.40
2023-03-24T04:31:26.028Z,12.34
2023-03-24T04:34:03.232Z,12.30
2023-03-24T04:36:42.794Z,12.29
2023-03-24T04:39:41.885Z,12.26
2023-03-24T04:42:20.743Z,12.21
2023-03-24T04:44:51.696Z,12.18
2023-03-24T04:47:48.872Z,12.15
2023-03-24T04:50:36.970Z,12.13
2023-03-24T04:53:10.079Z,12.12
2023-03-24T04:56:01.855Z,12.13
2023-03-24T04:59:02.841Z,12.15
2023-03-24T05:01:32.359Z,12.13
2023-03-24T05:04:22.908Z,12.12
2023-03-24T05:06:53.428Z,12.12
2023-03-24T05:09:27.595Z,12.13
2023-03-24T05:11:56.326Z,12.14
2023-03-24T05:14:26.236Z,12.16
2023-03-24T05:16:55.264Z,12.15
2023-03-24T05:19:25.799Z,12.16
2023-03-24T05:21:56.278Z,12.17
2023-03-24T05:24:25.938Z,12.21
2023-03-24T05:26:54.669Z,12.23
2023-03-24T05:29:23.804Z,12.24
2023-03-24T05:31:52.660Z,11.97
2023-03-24T05:34:24.025Z,12.25
2023-03-24T05:36:59.921Z,12.28
2023-03-24T05:39:28.489Z,12.31
2023-03-24T05:42:06.422Z,12.32
2023-03-24T05:44:35.327Z,12.36
2023-03-24T05:47:07.551Z,12.38
2023-03-24T05:49:36.726Z,12.37
2023-03-24T05:52:09.210Z,12.40
2023-03-24T05:54:40.581Z,12.43
2023-03-24T05:57:21.297Z,12.50
2023-03-24T06:00:17.262Z,12.54
2023-03-24T06:03:17.357Z,12.60
2023-03-24T06:05:52.770Z,12.63
2023-03-24T06:08:24.647Z,12.66
2023-03-24T06:10:53.846Z,12.67
2023-03-24T06:13:24.087Z,12.66
2023-03-24T06:15:54.707Z,12.66
2023-03-24T06:18:53.170Z,12.69
2023-03-24T06:21:51.536Z,12.81
2023-03-24T06:24:26.689Z,12.93
2023-03-24T06:27:02.132Z,13.05
2023-03-24T06:29:33.258Z,13.19
2023-03-24T06:32:02.282Z,13.19
2023-03-24T06:34:33.637Z,13.17
2023-03-24T06:37:16.672Z,13.16
2023-03-24T06:39:47.225Z,12.94
2023-03-24T06:42:18.696Z,13.20
2023-03-24T06:44:47.910Z,13.26
2023-03-24T06:47:17.436Z,13.30
2023-03-24T06:49:47.503Z,13.42
2023-03-24T06:52:16.426Z,13.63
2023-03-24T06:54:46.738Z,13.83
2023-03-24T06:57:16.259Z,14.04
2023-03-24T07:00:14.738Z,14.43
2023-03-24T07:02:57.252Z,14.67
2023-03-24T07:05:26.168Z,14.79
2023-03-24T07:08:27.730Z,14.77
2023-03-24T07:10:48.857Z,14.99
2023-03-24T07:13:17.683Z,15.21
2023-03-24T07:15:46.686Z,15.42
2023-03-24T07:18:15.770Z,15.64
2023-03-24T07:20:51.963Z,15.75
2023-03-24T07:23:23.061Z,15.81
2023-03-24T07:26:11.929Z,15.94
2023-03-24T07:28:50.016Z,16.12
2023-03-24T07:31:38.209Z,16.29
2023-03-24T07:34:11.326Z,16.30
2023-03-24T07:36:41.710Z,16.22
2023-03-24T07:39:15.320Z,16.05
2023-03-24T07:41:45.552Z,15.98
2023-03-24T07:44:25.075Z,15.99
2023-03-24T07:46:54.844Z,15.92
2023-03-24T07:49:23.873Z,16.08
2023-03-24T07:52:06.446Z,16.15
2023-03-24T07:54:39.219Z,16.42
2023-03-24T07:57:11.094Z,16.65
2023-03-24T07:59:40.187Z,16.86
2023-03-24T08:02:18.338Z,16.89
2023-03-24T08:05:07.715Z,16.76
2023-03-24T08:08:00.252Z,16.67
2023-03-24T08:10:30.859Z,17.03
2023-03-24T08:13:01.189Z,17.25
2023-03-24T08:15:30.318Z,17.33
2023-03-24T08:17:59.065Z,17.20
2023-03-24T08:20:29.613Z,17.18
2023-03-24T08:22:58.404Z,17.07
2023-03-24T08:25:27.841Z,16.83
2023-03-24T08:27:57.212Z,16.71
2023-03-24T08:30:29.182Z,16.76
2023-03-24T08:33:00.419Z,17.14
2023-03-24T08:35:32.278Z,17.32
2023-03-24T08:38:06.096Z,17.72
2023-03-24T08:40:36.781Z,17.95
2023-03-24T08:43:08.582Z,18.25
2023-03-24T08:45:39.554Z,18.44
2023-03-24T08:48:10.605Z,18.77
2023-03-24T08:50:41.784Z,18.90
2023-03-24T08:53:12.407Z,18.63
2023-03-24T08:55:43.187Z,18.25
2023-03-24T08:58:15.783Z,18.41
2023-03-24T09:00:47.385Z,18.47
2023-03-24T09:03:22.497Z,18.30
2023-03-24T09:05:52.129Z,18.35
2023-03-24T09:08:21.371Z,18.05
2023-03-24T09:10:51.252Z,17.79
2023-03-24T09:13:20.998Z,17.66
2023-03-24T09:15:53.540Z,17.58
2023-03-24T09:18:23.599Z,17.52
2023-03-24T09:20:52.925Z,17.24
2023-03-24T09:23:22.577Z,17.13
2023-03-24T09:25:51.990Z,17.04
2023-03-24T09:28:21.023Z,16.94
2023-03-24T09:30:51.745Z,16.97
2023-03-24T09:33:20.842Z,17.17
2023-03-24T09:35:57.783Z,17.31
2023-03-24T09:38:29.243Z,17.27
2023-03-24T09:41:01.580Z,17.13
2023-03-24T09:43:37.734Z,17.13
2023-03-24T09:46:12.984Z,17.25
2023-03-24T09:48:48.230Z,17.37
2023-03-24T09:51:23.576Z,17.52
2023-03-24T09:53:59.441Z,17.68
2023-03-24T09:56:30.606Z,17.83
2023-03-24T09:59:06.352Z,17.70
2023-03-24T10:01:37.339Z,17.79
2023-03-24T10:04:14.462Z,17.79
2023-03-24T10:06:44.318Z,17.95
2023-03-24T10:09:24.685Z,17.80
2023-03-24T10:12:04.534Z,17.73
2023-03-24T10:14:53.717Z,17.71
2023-03-24T10:17:37.367Z,17.66
2023-03-24T10:20:25.356Z,17.17
2023-03-24T10:23:02.083Z,17.24
2023-03-24T10:25:47.078Z,17.32
2023-03-24T10:28:21.964Z,17.66
2023-03-24T10:30:53.177Z,17.84
2023-03-24T10:33:23.364Z,18.13
2023-03-24T10:36:00.220Z,18.65
2023-03-24T10:38:29.315Z,19.30
2023-03-24T10:40:58.556Z,19.15
2023-03-24T10:43:29.139Z,19.29
2023-03-24T10:46:00.310Z,19.67
2023-03-24T10:48:45.768Z,19.52
2023-03-24T10:51:19.545Z,20.08
2023-03-24T10:53:49.904Z,20.58
2023-03-24T10:56:20.331Z,20.38
2023-03-24T10:58:49.572Z,20.23
2023-03-24T11:01:27.591Z,20.34
2023-03-24T11:04:05.776Z,20.78
2023-03-24T11:06:35.808Z,20.89
2023-03-24T11:09:22.035Z,20.42
2023-03-24T11:11:52.648Z,20.63
2023-03-24T11:14:26.585Z,20.06
2023-03-24T11:17:04.020Z,19.83
2023-03-24T11:19:37.597Z,19.64
2023-03-24T11:22:09.074Z,19.57
2023-03-24T11:24:39.593Z,20.12
2023-03-24T11:27:16.053Z,20.22
2023-03-24T11:29:49.588Z,20.31
2023-03-24T11:32:24.918Z,20.09
2023-03-24T11:35:02.421Z,19.86
2023-03-24T11:37:34.181Z,20.03
2023-03-24T11:40:27.143Z,20.34
2023-03-24T11:42:59.455Z,20.80
2023-03-24T11:45:36.168Z,20.98
2023-03-24T11:48:15.400Z,21.11
2023-03-24T11:50:47.561Z,21.43
2023-03-24T11:53:22.407Z,21.53
2023-03-24T11:55:55.890Z,21.19
2023-03-24T11:58:36.137Z,21.08
2023-03-24T12:01:12.713Z,20.39
2023-03-24T12:04:23.191Z,20.38
2023-03-24T12:07:07.520Z,20.64
2023-03-24T12:09:45.111Z,20.43
2023-03-24T12:12:33.687Z,20.65
2023-03-24T12:15:27.952Z,20.79
2023-03-24T12:18:48.903Z,20.43
2023-03-24T12:21:28.663Z,20.51
2023-03-24T12:24:06.106Z,20.17
2023-03-24T12:26:36.335Z,20.60
2023-03-24T12:29:26.789Z,20.74
2023-03-24T12:32:37.087Z,20.94
2023-03-24T12:35:39.984Z,20.91
2023-03-24T12:38:34.686Z,19.41
2023-03-24T12:41:37.647Z,19.09
2023-03-24T12:44:32.366Z,18.81
2023-03-24T12:47:13.885Z,17.51
2023-03-24T12:49:58.329Z,16.39
2023-03-24T12:52:51.152Z,15.12
2023-03-24T12:55:35.358Z,14.10
2023-03-24T12:58:13.012Z,13.67
2023-03-24T13:00:49.472Z,13.28
2023-03-24T13:03:29.701Z,12.87
2023-03-24T13:06:16.984Z,12.73
2023-03-24T13:09:02.802Z,12.64
2023-03-24T13:11:44.271Z,12.83
2023-03-24T13:14:21.338Z,12.97
2023-03-24T13:17:05.287Z,13.34
2023-03-24T13:19:39.322Z,13.91
2023-03-24T13:22:17.949Z,14.09
2023-03-24T13:24:53.301Z,14.02
2023-03-24T13:27:26.291Z,14.04
2023-03-24T13:30:27.835Z,14.09
2023-03-24T13:33:01.886Z,13.81
2023-03-24T13:35:52.963Z,13.72
2023-03-24T13:38:33.545Z,13.66
2023-03-24T13:41:08.056Z,13.30
2023-03-24T13:43:38.370Z,13.47
2023-03-24T13:46:14.009Z,13.33
2023-03-24T13:48:48.429Z,13.20
2023-03-24T13:51:28.420Z,13.13
2023-03-24T13:54:01.066Z,13.05
2023-03-24T13:56:37.473Z,13.00
2023-03-24T13:59:32.352Z,12.95
2023-03-24T14:02:43.845Z,12.90
2023-03-24T14:05:31.848Z,12.85
2023-03-24T14:08:17.722Z,12.81
2023-03-24T14:10:50.004Z,12.79
2023-03-24T14:13:26.181Z,12.83
2023-03-24T14:15:59.149Z,12.83
2023-03-24T14:18:46.249Z,12.83
2023-03-24T14:21:16.737Z,12.83
2023-03-24T14:23:49.497Z,12.99
2023-03-24T14:26:35.415Z,13.14
2023-03-24T14:29:10.869Z,13.13
2023-03-24T14:31:40.088Z,12.98
2023-03-24T14:34:17.373Z,12.98
2023-03-24T14:36:50.270Z,12.96
2023-03-24T14:39:29.444Z,12.74
2023-03-24T14:41:59.318Z,12.67
2023-03-24T14:44:53.891Z,12.69
2023-03-24T14:47:25.326Z,12.70
2023-03-24T14:49:58.278Z,12.42
2023-03-24T14:52:30.079Z,12.36
2023-03-24T14:55:01.555Z,12.39
2023-03-24T14:57:32.454Z,12.32
2023-03-24T15:00:11.850Z,12.29
2023-03-24T15:02:43.554Z,12.30
2023-03-24T15:05:26.150Z,12.25
2023-03-24T15:08:04.679Z,12.22
2023-03-24T15:10:38.649Z,12.29
2023-03-24T15:13:08.074Z,12.40
2023-03-24T15:15:36.871Z,12.72
2023-03-24T15:18:06.009Z,13.00
2023-03-24T15:20:38.280Z,13.07
2023-03-24T15:23:17.339Z,13.08
2023-03-24T15:25:47.956Z,12.84
2023-03-24T15:28:23.206Z,12.66
2023-03-24T15:30:52.387Z,12.58
2023-03-24T15:33:21.828Z,12.58
2023-03-24T15:35:59.133Z,12.73
2023-03-24T15:38:32.320Z,13.20
2023-03-24T15:41:04.954Z,13.53
2023-03-24T15:43:33.859Z,13.70
2023-03-24T15:46:12.533Z,13.66
2023-03-24T15:48:42.156Z,13.51
2023-03-24T15:51:13.060Z,13.32
2023-03-24T15:53:44.812Z,13.20
2023-03-24T15:56:25.731Z,13.30
2023-03-24T15:58:58.733Z,13.32
2023-03-24T16:01:36.422Z,13.16
2023-03-24T16:04:10.207Z,13.22
2023-03-24T16:06:43.702Z,13.25
2023-03-24T16:09:21.849Z,13.12
2023-03-24T16:11:50.919Z,12.93
2023-03-24T16:14:24.983Z,12.73
2023-03-24T16:16:56.086Z,12.61
2023-03-24T16:19:25.687Z,12.49
2023-03-24T16:21:56.391Z,12.33
2023-03-24T16:24:25.465Z,12.16
2023-03-24T16:26:54.252Z,12.05
2023-03-24T16:29:24.631Z,11.92
2023-03-24T16:31:54.595Z,11.81
2023-03-24T16:34:24.358Z,11.58
2023-03-24T16:36:56.619Z,11.60
2023-03-24T16:39:27.278Z,11.50
2023-03-24T16:41:57.508Z,11.39
2023-03-24T16:44:26.893Z,11.32
2023-03-24T16:46:56.627Z,11.32
2023-03-24T16:49:26.263Z,11.30
2023-03-24T16:51:56.707Z,11.28
2023-03-24T16:54:25.482Z,11.29
2023-03-24T16:56:54.192Z,11.25
2023-03-24T16:59:23.048Z,11.16
2023-03-24T17:01:56.360Z,11.07
2023-03-24T17:04:27.734Z,10.94
2023-03-24T17:06:57.853Z,10.42
2023-03-24T17:09:28.545Z,10.72
2023-03-24T17:11:59.278Z,10.63
2023-03-24T17:14:30.836Z,10.52
2023-03-24T17:17:02.911Z,10.42
2023-03-24T17:19:33.105Z,10.35
2023-03-24T17:22:05.471Z,10.23
2023-03-24T17:24:36.667Z,10.16
2023-03-24T17:27:11.138Z,10.11
2023-03-24T17:29:40.080Z,10.01
2023-03-24T17:32:09.437Z,9.93
2023-03-24T17:34:43.323Z,9.90
2023-03-24T17:37:13.754Z,9.86
2023-03-24T17:39:42.754Z,9.79
2023-03-24T17:42:11.523Z,9.69
2023-03-24T17:44:40.301Z,9.60
2023-03-24T17:47:09.192Z,9.57
2023-03-24T17:49:38.079Z,9.52
2023-03-24T17:52:06.942Z,9.47
2023-03-24T17:54:37.271Z,9.44
2023-03-24T17:57:06.498Z,9.34
2023-03-24T17:59:37.233Z,9.29
2023-03-24T18:02:06.325Z,9.28
2023-03-24T18:04:35.667Z,9.25
2023-03-24T18:07:04.541Z,9.21
2023-03-24T18:09:33.885Z,9.14
2023-03-24T18:12:04.058Z,9.20
2023-03-24T18:14:32.865Z,9.31
2023-03-24T18:17:01.805Z,9.35
2023-03-24T18:19:30.541Z,9.30
2023-03-24T18:21:59.294Z,9.24
2023-03-24T18:24:28.135Z,9.18
2023-03-24T18:26:57.043Z,9.16
2023-03-24T18:29:27.825Z,9.13
2023-03-24T18:31:56.953Z,9.12
2023-03-24T18:34:26.605Z,9.11
2023-03-24T18:36:56.159Z,9.11
2023-03-24T18:39:25.308Z,9.07
2023-03-24T18:41:58.659Z,9.07
2023-03-24T18:44:29.982Z,9.03
2023-03-24T18:46:58.904Z,8.97
2023-03-24T18:49:27.847Z,8.99
2023-03-24T18:51:56.638Z,9.00
2023-03-24T18:54:25.650Z,9.00
2023-03-24T18:56:54.504Z,8.98
2023-03-24T18:59:23.384Z,9.01
2023-03-24T19:01:53.460Z,8.94
2023-03-24T19:04:22.191Z,8.86
2023-03-24T19:06:50.892Z,8.77
2023-03-24T19:09:22.214Z,8.71
2023-03-24T19:11:50.955Z,8.61
2023-03-24T19:14:19.955Z,8.69
2023-03-24T19:16:48.765Z,8.65
2023-03-24T19:19:20.467Z,8.66
2023-03-24T19:21:49.232Z,8.62
2023-03-24T19:24:18.380Z,8.68
2023-03-24T19:26:47.147Z,8.69
2023-03-24T19:29:15.945Z,8.66
2023-03-24T19:31:44.975Z,8.67
2023-03-24T19:34:14.254Z,8.74
2023-03-24T19:36:49.101Z,8.74
2023-03-24T19:39:29.448Z,8.75
2023-03-24T19:41:58.180Z,8.77
2023-03-24T19:44:27.010Z,8.75
2023-03-24T19:46:56.068Z,8.67
2023-03-24T19:49:24.911Z,8.65
2023-03-24T19:51:54.994Z,8.60
2023-03-24T19:54:23.762Z,8.55
2023-03-24T19:56:52.612Z,8.55
2023-03-24T19:59:21.434Z,8.57
2023-03-24T20:01:50.334Z,8.57
2023-03-24T20:04:19.088Z,8.51
2023-03-24T20:06:47.943Z,8.52
2023-03-24T20:09:18.068Z,8.48
2023-03-24T20:11:47.613Z,8.51
2023-03-24T20:14:18.518Z,8.46
2023-03-24T20:16:47.224Z,8.46
2023-03-24T20:19:16.039Z,8.42
2023-03-24T20:21:44.858Z,8.36
2023-03-24T20:24:14.945Z,8.35
2023-03-24T20:26:46.551Z,8.32
2023-03-24T20:29:16.986Z,8.27
2023-03-24T20:31:45.875Z,8.23
2023-03-24T20:34:14.890Z,8.23
2023-03-24T20:36:43.629Z,8.20
2023-03-24T20:39:12.377Z,8.12
2023-03-24T20:41:41.130Z,8.15
2023-03-24T20:44:11.456Z,8.10
2023-03-24T20:46:40.292Z,8.12
2023-03-24T20:49:14.053Z,8.07
2023-03-24T20:51:42.827Z,8.08
2023-03-24T20:54:11.781Z,8.09
2023-03-24T20:56:40.601Z,8.10
2023-03-24T20:59:10.826Z,8.17
2023-03-24T21:01:42.089Z,8.28
2023-03-24T21:04:11.398Z,8.40
2023-03-24T21:06:40.223Z,8.59
2023-03-24T21:09:09.079Z,8.74
2023-03-24T21:11:37.966Z,8.83
2023-03-24T21:14:06.716Z,8.91
2023-03-24T21:16:37.641Z,8.98
2023-03-24T21:19:06.711Z,9.07
2023-03-24T21:21:38.265Z,9.16
2023-03-24T21:24:07.284Z,9.25
2023-03-24T21:26:36.544Z,9.32
2023-03-24T21:29:06.860Z,9.36
2023-03-24T21:31:37.023Z,9.42
2023-03-24T21:34:08.092Z,9.47
2023-03-24T21:36:38.545Z,9.51
2023-03-24T21:39:09.291Z,9.55
2023-03-24T21:41:38.968Z,9.59
2023-03-24T21:44:09.450Z,9.61
2023-03-24T21:46:39.578Z,9.63
2023-03-24T21:49:11.120Z,9.67
2023-03-24T21:51:42.852Z,9.70
2023-03-24T21:54:14.832Z,9.73
2023-03-24T21:56:43.630Z,9.77
2023-03-24T21:59:13.011Z,9.79
2023-03-24T22:01:43.128Z,9.81
2023-03-24T22:04:13.453Z,9.83
2023-03-24T22:06:42.196Z,9.81
2023-03-24T22:09:11.287Z,9.81
2023-03-24T22:11:42.770Z,9.83
2023-03-24T22:14:12.659Z,9.83
2023-03-24T22:16:42.784Z,9.81
2023-03-24T22:19:11.517Z,9.81
2023-03-24T22:21:40.233Z,9.79
2023-03-24T22:24:09.136Z,9.80
2023-03-24T22:26:37.859Z,9.81
2023-03-24T22:29:06.575Z,9.81
2023-03-24T22:31:35.406Z,9.74
2023-03-24T22:34:05.435Z,9.65
2023-03-24T22:36:34.179Z,9.56
2023-03-24T22:39:02.910Z,9.51
2023-03-24T22:41:31.611Z,9.50
2023-03-24T22:44:00.313Z,9.50
2023-03-24T22:46:29.101Z,9.51
2023-03-24T22:48:57.807Z,9.54
2023-03-24T22:51:28.781Z,9.52
2023-03-24T22:53:57.779Z,9.52
2023-03-24T22:56:26.550Z,9.57
2023-03-24T22:58:55.607Z,9.61
2023-03-24T23:01:24.231Z,9.64
2023-03-24T23:03:53.044Z,9.65
2023-03-24T23:06:21.850Z,9.64
2023-03-24T23:08:53.467Z,9.65
2023-03-24T23:11:22.332Z,9.63
2023-03-24T23:13:52.306Z,9.62
2023-03-24T23:16:21.655Z,9.60
2023-03-24T23:18:51.661Z,9.60
2023-03-24T23:21:20.435Z,9.60
2023-03-24T23:23:49.324Z,9.60
2023-03-24T23:26:26.085Z,9.59
2023-03-24T23:28:55.936Z,9.57
2023-03-24T23:31:27.330Z,9.57
2023-03-24T23:33:58.102Z,9.57
2023-03-24T23:36:28.451Z,9.58
2023-03-24T23:38:57.532Z,9.58
2023-03-24T23:41:27.693Z,9.61
2023-03-24T23:43:56.839Z,9.65
2023-03-24T23:46:25.953Z,9.65
2023-03-24T23:48:55.023Z,9.60
2023-03-24T23:51:26.120Z,9.53
2023-03-24T23:53:55.702Z,9.52
2023-03-24T23:56:24.421Z,9.53
2023-03-24T23:58:54.177Z,9.45
